createdAt,value
2023-01-20T00:01:22.860Z,81.81
2023-01-20T00:03:50.609Z,81.80
2023-01-20T00:06:17.065Z,82.06
2023-01-20T00:08:43.612Z,81.76
2023-01-20T00:11:12.902Z,82.33
2023-01-20T00:13:39.658Z,81.85
2023-01-20T00:16:08.825Z,82.22
2023-01-20T00:18:35.948Z,81.47
2023-01-20T00:21:13.637Z,82.04
2023-01-20T00:23:40.972Z,81.67
2023-01-20T00:26:16.233Z,82.24
2023-01-20T00:28:43.560Z,82.03
2023-01-20T00:31:30.636Z,83.49
2023-01-20T00:33:59.897Z,82.85
2023-01-20T00:36:28.232Z,82.82
2023-01-20T00:38:55.218Z,83.17
2023-01-20T00:41:21.583Z,83.26
2023-01-20T00:43:48.163Z,83.32
2023-01-20T00:46:15.338Z,82.90
2023-01-20T00:48:42.141Z,83.13
2023-01-20T00:51:09.640Z,82.94
2023-01-20T00:53:36.605Z,82.74
2023-01-20T00:56:03.583Z,82.88
2023-01-20T00:58:30.224Z,83.01
2023-01-20T01:00:58.636Z,82.67
2023-01-20T01:03:25.426Z,83.10
2023-01-20T01:05:51.837Z,82.50
2023-01-20T01:08:18.265Z,82.92
2023-01-20T01:10:44.670Z,82.74
2023-01-20T01:13:11.209Z,83.02
2023-01-20T01:15:37.811Z,82.70
2023-01-20T01:18:04.928Z,83.19
2023-01-20T01:20:31.679Z,82.57
2023-01-20T01:22:58.168Z,82.45
2023-01-20T01:25:24.690Z,82.88
2023-01-20T01:27:51.078Z,82.47
2023-01-20T01:30:17.657Z,82.64
2023-01-20T01:32:44.159Z,82.81
2023-01-20T01:35:10.733Z,82.93
2023-01-20T01:37:37.258Z,83.58
2023-01-20T01:40:04.082Z,83.53
2023-01-20T01:42:30.481Z,83.21
2023-01-20T01:45:12.922Z,84.07
2023-01-20T01:47:44.376Z,83.64
2023-01-20T01:50:25.055Z,83.51
2023-01-20T01:52:54.170Z,83.64
2023-01-20T01:55:25.811Z,83.86
2023-01-20T01:57:53.467Z,84.06
2023-01-20T02:00:20.641Z,83.51
2023-01-20T02:02:47.198Z,83.63
2023-01-20T02:05:16.137Z,83.88
2023-01-20T02:07:46.226Z,84.15
2023-01-20T02:10:14.041Z,83.93
2023-01-20T02:12:43.193Z,84.82
2023-01-20T02:15:09.927Z,84.87
2023-01-20T02:18:01.221Z,84.93
2023-01-20T02:20:50.445Z,84.91
2023-01-20T02:23:35.779Z,85.35
2023-01-20T02:26:25.525Z,84.61
2023-01-20T02:29:29.970Z,84.81
2023-01-20T02:32:15.901Z,84.86
2023-01-20T02:35:03.484Z,84.29
2023-01-20T02:37:40.433Z,84.97
2023-01-20T02:40:30.422Z,85.63
2023-01-20T02:43:17.504Z,85.05
2023-01-20T02:46:01.714Z,85.13
2023-01-20T02:48:35.743Z,84.38
2023-01-20T02:51:36.266Z,84.61
2023-01-20T02:54:08.221Z,84.32
2023-01-20T02:56:36.466Z,84.20
2023-01-20T02:59:11.008Z,84.86
2023-01-20T03:01:45.337Z,84.84
2023-01-20T03:04:16.451Z,84.21
2023-01-20T03:06:49.378Z,84.61
2023-01-20T03:09:21.204Z,84.42
2023-01-20T03:11:56.355Z,84.60
2023-01-20T03:14:23.332Z,84.18
2023-01-20T03:16:50.452Z,84.76
2023-01-20T03:19:20.534Z,85.26
2023-01-20T03:21:47.645Z,85.30
2023-01-20T03:24:14.221Z,84.77
2023-01-20T03:26:41.106Z,85.24
2023-01-20T03:29:11.488Z,85.33
2023-01-20T03:31:46.759Z,85.63
2023-01-20T03:34:17.814Z,85.12
2023-01-20T03:36:45.938Z,84.99
2023-01-20T03:39:12.885Z,84.94
2023-01-20T03:42:01.067Z,85.67
2023-01-20T03:44:30.095Z,85.14
2023-01-20T03:47:29.041Z,85.60
2023-01-20T03:50:13.391Z,85.47
2023-01-20T03:52:54.448Z,84.88
2023-01-20T03:55:34.155Z,84.90
2023-01-20T03:58:04.884Z,84.10
2023-01-20T04:00:37.962Z,84.52
2023-01-20T04:03:11.790Z,84.18
2023-01-20T04:05:39.791Z,83.80
2023-01-20T04:08:09.363Z,84.23
2023-01-20T04:10:40.286Z,83.90
2023-01-20T04:13:06.763Z,83.70
2023-01-20T04:15:37.424Z,83.26
2023-01-20T04:18:23.564Z,84.22
2023-01-20T04:21:02.260Z,83.49
2023-01-20T04:23:48.978Z,83.50
2023-01-20T04:26:15.482Z,83.38
2023-01-20T04:28:42.154Z,83.02
2023-01-20T04:31:18.175Z,83.81
2023-01-20T04:33:51.628Z,83.13
2023-01-20T04:36:18.053Z,83.23
2023-01-20T04:38:44.470Z,82.99
2023-01-20T04:41:11.759Z,83.40
2023-01-20T04:43:38.220Z,83.32
2023-01-20T04:46:05.040Z,83.25
2023-01-20T04:48:31.431Z,82.80
2023-01-20T04:50:57.938Z,82.92
2023-01-20T04:53:24.378Z,82.85
2023-01-20T04:55:50.798Z,82.65
2023-01-20T04:58:17.200Z,82.29
2023-01-20T05:00:43.788Z,82.61
2023-01-20T05:03:10.533Z,82.29
2023-01-20T05:05:36.983Z,82.39
2023-01-20T05:08:05.287Z,82.47
2023-01-20T05:10:32.885Z,82.28
2023-01-20T05:12:59.983Z,82.17
2023-01-20T05:15:26.617Z,82.23
2023-01-20T05:17:53.060Z,81.63
2023-01-20T05:20:20.728Z,81.95
2023-01-20T05:22:48.152Z,81.50
2023-01-20T05:25:14.967Z,81.50
2023-01-20T05:27:41.623Z,81.46
2023-01-20T05:30:08.925Z,81.25
2023-01-20T05:32:35.337Z,81.24
2023-01-20T05:35:01.743Z,80.83
2023-01-20T05:37:28.352Z,80.40
2023-01-20T05:39:54.784Z,80.85
2023-01-20T05:42:21.166Z,80.84
2023-01-20T05:44:47.621Z,80.74
2023-01-20T05:47:14.187Z,80.64
2023-01-20T05:49:40.600Z,80.59
2023-01-20T05:52:07.033Z,80.53
2023-01-20T05:54:33.420Z,80.34
2023-01-20T05:56:59.869Z,80.42
2023-01-20T05:59:26.397Z,80.27
2023-01-20T06:01:52.786Z,80.20
2023-01-20T06:04:19.191Z,79.88
2023-01-20T06:06:45.586Z,79.71
2023-01-20T06:09:12.037Z,79.67
2023-01-20T06:11:38.449Z,79.87
2023-01-20T06:14:05.021Z,80.08
2023-01-20T06:16:31.532Z,79.57
2023-01-20T06:18:58.092Z,79.58
2023-01-20T06:21:24.948Z,79.76
2023-01-20T06:23:52.619Z,79.25
2023-01-20T06:26:19.051Z,79.17
2023-01-20T06:28:45.489Z,79.25
2023-01-20T06:31:14.761Z,79.55
2023-01-20T06:33:42.414Z,79.33
2023-01-20T06:36:13.405Z,79.42
2023-01-20T06:38:39.944Z,79.41
2023-01-20T06:41:10.395Z,78.98
2023-01-20T06:43:40.040Z,79.10
2023-01-20T06:46:09.771Z,79.36
2023-01-20T06:48:37.045Z,79.17
2023-01-20T06:51:07.193Z,78.74
2023-01-20T06:53:34.025Z,79.72
2023-01-20T06:56:01.573Z,78.72
2023-01-20T06:58:31.026Z,78.97
2023-01-20T07:00:58.740Z,78.71
2023-01-20T07:03:25.248Z,79.24
2023-01-20T07:05:56.423Z,79.32
2023-01-20T07:08:22.880Z,78.67
2023-01-20T07:10:49.301Z,78.57
2023-01-20T07:13:15.737Z,78.81
2023-01-20T07:15:42.118Z,78.29
2023-01-20T07:18:08.586Z,78.60
2023-01-20T07:20:35.318Z,78.58
2023-01-20T07:23:02.739Z,78.64
2023-01-20T07:25:29.226Z,78.39
2023-01-20T07:27:57.656Z,78.32
2023-01-20T07:30:24.636Z,78.24
2023-01-20T07:32:51.539Z,78.14
2023-01-20T07:35:18.008Z,78.04
2023-01-20T07:37:44.426Z,78.08
2023-01-20T07:40:11.563Z,78.12
2023-01-20T07:42:38.457Z,78.20
2023-01-20T07:45:05.825Z,78.26
2023-01-20T07:47:32.303Z,78.29
2023-01-20T07:49:58.766Z,77.92
2023-01-20T07:52:25.135Z,77.69
2023-01-20T07:54:51.529Z,77.99
2023-01-20T07:57:17.948Z,77.84
2023-01-20T07:59:44.320Z,77.90
2023-01-20T08:02:10.767Z,77.58
2023-01-20T08:04:37.281Z,77.61
2023-01-20T08:07:04.023Z,77.67
2023-01-20T08:09:30.393Z,77.60
2023-01-20T08:11:56.854Z,77.51
2023-01-20T08:14:23.315Z,77.30
2023-01-20T08:16:50.289Z,76.72
2023-01-20T08:19:16.777Z,76.81
2023-01-20T08:21:43.188Z,76.65
2023-01-20T08:24:10.562Z,76.74
2023-01-20T08:26:37.069Z,76.03
2023-01-20T08:29:08.962Z,76.44
2023-01-20T08:31:35.930Z,75.58
2023-01-20T08:34:04.331Z,75.83
2023-01-20T08:36:34.104Z,75.34
2023-01-20T08:39:02.704Z,75.31
2023-01-20T08:41:32.692Z,75.19
2023-01-20T08:44:00.560Z,74.42
2023-01-20T08:46:27.305Z,74.50
2023-01-20T08:48:54.948Z,74.87
2023-01-20T08:51:32.283Z,75.44
2023-01-20T08:53:59.180Z,74.56
2023-01-20T08:56:25.982Z,74.75
2023-01-20T08:58:53.885Z,74.41
2023-01-20T09:01:23.292Z,74.39
2023-01-20T09:04:04.392Z,74.72
2023-01-20T09:06:38.491Z,74.38
2023-01-20T09:09:05.233Z,74.29
2023-01-20T09:11:31.838Z,73.68
2023-01-20T09:13:58.313Z,73.13
2023-01-20T09:16:24.730Z,73.00
2023-01-20T09:18:51.373Z,73.06
2023-01-20T09:21:17.759Z,73.00
2023-01-20T09:23:44.373Z,73.23
2023-01-20T09:26:11.046Z,73.30
2023-01-20T09:28:37.497Z,72.95
2023-01-20T09:31:07.226Z,72.19
2023-01-20T09:33:38.012Z,71.70
2023-01-20T09:36:07.206Z,71.34
2023-01-20T09:38:52.256Z,69.81
2023-01-20T09:41:47.157Z,69.69
2023-01-20T09:44:32.275Z,69.44
2023-01-20T09:47:21.062Z,70.24
2023-01-20T09:50:59.553Z,70.42
2023-01-20T09:53:34.525Z,70.27
2023-01-20T09:56:08.733Z,69.17
2023-01-20T09:58:39.980Z,68.43
2023-01-20T10:01:30.358Z,69.00
2023-01-20T10:04:06.381Z,68.70
2023-01-20T10:06:39.497Z,68.13
2023-01-20T10:09:10.611Z,68.51
2023-01-20T10:11:43.306Z,67.60
2023-01-20T10:14:23.972Z,66.66
2023-01-20T10:17:32.294Z,65.97
2023-01-20T10:20:05.028Z,65.92
2023-01-20T10:22:43.325Z,65.75
2023-01-20T10:25:20.029Z,66.58
2023-01-20T10:28:00.359Z,64.50
2023-01-20T10:30:31.043Z,63.44
2023-01-20T10:33:03.933Z,63.31
2023-01-20T10:35:37.020Z,63.17
2023-01-20T10:38:07.661Z,62.48
2023-01-20T10:40:46.366Z,63.98
2023-01-20T10:43:15.323Z,63.87
2023-01-20T10:46:01.255Z,63.81
2023-01-20T10:49:13.055Z,64.32
2023-01-20T10:51:59.960Z,65.38
2023-01-20T10:54:48.583Z,65.63
2023-01-20T10:57:16.103Z,65.25
2023-01-20T10:59:51.068Z,66.14
2023-01-20T11:02:24.577Z,66.25
2023-01-20T11:04:57.368Z,65.54
2023-01-20T11:07:23.814Z,64.76
2023-01-20T11:09:50.246Z,64.56
2023-01-20T11:12:20.396Z,64.73
2023-01-20T11:14:47.545Z,65.96
2023-01-20T11:17:18.108Z,65.22
2023-01-20T11:19:48.737Z,65.12
2023-01-20T11:22:22.465Z,64.11
2023-01-20T11:24:55.192Z,63.81
2023-01-20T11:27:24.596Z,62.46
2023-01-20T11:29:56.994Z,63.02
2023-01-20T11:32:25.271Z,62.20
2023-01-20T11:34:52.362Z,61.76
2023-01-20T11:37:21.699Z,61.12
2023-01-20T11:39:54.097Z,60.91
2023-01-20T11:42:25.896Z,61.04
2023-01-20T11:45:19.881Z,60.56
2023-01-20T11:48:00.524Z,61.48
2023-01-20T11:50:38.624Z,62.05
2023-01-20T11:53:15.970Z,61.40
2023-01-20T11:55:55.758Z,61.70
2023-01-20T11:58:28.461Z,62.14
2023-01-20T12:01:04.309Z,62.65
2023-01-20T12:03:58.528Z,62.40
2023-01-20T12:06:28.951Z,62.02
2023-01-20T12:09:15.526Z,62.41
2023-01-20T12:12:12.951Z,62.06
2023-01-20T12:14:47.166Z,61.68
2023-01-20T12:17:22.861Z,61.84
2023-01-20T12:20:11.181Z,61.84
2023-01-20T12:23:04.503Z,62.34
2023-01-20T12:25:36.747Z,61.71
2023-01-20T12:28:12.395Z,62.21
2023-01-20T12:30:47.622Z,62.29
2023-01-20T12:33:23.196Z,62.80
2023-01-20T12:36:20.279Z,63.30
2023-01-20T12:39:12.497Z,62.57
2023-01-20T12:41:41.791Z,62.04
2023-01-20T12:44:57.541Z,61.87
2023-01-20T12:47:33.071Z,61.15
2023-01-20T12:50:30.080Z,61.01
2023-01-20T12:53:17.111Z,61.39
2023-01-20T12:56:06.734Z,62.79
2023-01-20T12:59:08.173Z,62.69
2023-01-20T13:01:42.698Z,62.38
2023-01-20T13:04:33.890Z,62.68
2023-01-20T13:07:23.419Z,62.08
2023-01-20T13:10:16.131Z,62.21
2023-01-20T13:13:04.082Z,60.58
2023-01-20T13:15:37.143Z,60.51
2023-01-20T13:18:30.821Z,60.82
2023-01-20T13:20:57.296Z,58.24
2023-01-20T13:23:27.722Z,56.98
2023-01-20T13:25:55.562Z,56.59
2023-01-20T13:28:25.604Z,56.82
2023-01-20T13:30:54.946Z,56.41
2023-01-20T13:33:42.150Z,56.02
2023-01-20T13:36:21.160Z,54.31
2023-01-20T13:38:50.205Z,54.01
2023-01-20T13:41:49.118Z,55.17
2023-01-20T13:44:42.488Z,55.00
2023-01-20T13:47:11.356Z,54.75
2023-01-20T13:49:48.798Z,55.21
2023-01-20T13:52:16.187Z,54.62
2023-01-20T13:54:44.991Z,54.33
2023-01-20T13:57:23.093Z,55.02
2023-01-20T13:59:50.294Z,53.90
2023-01-20T14:02:22.749Z,55.05
2023-01-20T14:04:49.950Z,53.69
2023-01-20T14:07:26.540Z,54.04
2023-01-20T14:09:58.495Z,54.30
2023-01-20T14:12:25.925Z,53.82
2023-01-20T14:14:53.344Z,54.42
2023-01-20T14:17:22.895Z,54.79
2023-01-20T14:19:54.812Z,56.10
2023-01-20T14:22:21.249Z,56.79
2023-01-20T14:24:50.044Z,57.22
2023-01-20T14:27:27.085Z,58.06
2023-01-20T14:29:55.940Z,58.26
2023-01-20T14:32:25.947Z,58.71
2023-01-20T14:34:56.373Z,58.88
2023-01-20T14:37:28.864Z,59.36
2023-01-20T14:39:58.670Z,59.73
2023-01-20T14:42:28.057Z,59.90
2023-01-20T14:44:56.231Z,59.96
2023-01-20T14:47:25.887Z,60.53
2023-01-20T14:49:55.012Z,60.71
2023-01-20T14:52:30.918Z,61.08
2023-01-20T14:54:57.836Z,61.21
2023-01-20T14:57:40.518Z,61.96
2023-01-20T15:00:20.363Z,62.02
2023-01-20T15:03:05.379Z,62.34
2023-01-20T15:05:39.210Z,61.91
2023-01-20T15:08:11.435Z,62.89
2023-01-20T15:10:42.079Z,63.11
2023-01-20T15:13:26.564Z,63.06
2023-01-20T15:16:06.923Z,63.16
2023-01-20T15:18:33.485Z,62.95
2023-01-20T15:21:17.949Z,64.04
2023-01-20T15:23:45.783Z,63.84
2023-01-20T15:26:26.611Z,64.71
2023-01-20T15:28:54.500Z,64.23
2023-01-20T15:31:21.681Z,64.45
2023-01-20T15:33:48.830Z,64.78
2023-01-20T15:36:24.286Z,65.64
2023-01-20T15:38:50.881Z,65.40
2023-01-20T15:41:17.387Z,65.84
2023-01-20T15:43:45.497Z,65.95
2023-01-20T15:46:13.352Z,66.00
2023-01-20T15:48:39.943Z,66.04
2023-01-20T15:51:07.172Z,66.75
2023-01-20T15:53:34.985Z,66.73
2023-01-20T15:56:01.951Z,67.07
2023-01-20T15:58:32.971Z,67.29
2023-01-20T16:01:00.112Z,67.19
2023-01-20T16:03:28.040Z,67.42
2023-01-20T16:05:55.682Z,67.38
2023-01-20T16:08:25.744Z,67.24
2023-01-20T16:10:52.191Z,67.42
2023-01-20T16:13:18.666Z,67.90
2023-01-20T16:15:45.170Z,67.63
2023-01-20T16:18:13.583Z,68.37
2023-01-20T16:20:41.022Z,68.35
2023-01-20T16:23:07.747Z,68.68
2023-01-20T16:25:34.251Z,68.53
2023-01-20T16:28:01.207Z,68.43
2023-01-20T16:30:28.125Z,69.30
2023-01-20T16:32:54.895Z,69.33
2023-01-20T16:35:23.692Z,69.61
2023-01-20T16:37:50.190Z,69.92
2023-01-20T16:40:19.745Z,70.44
2023-01-20T16:42:46.758Z,70.20
2023-01-20T16:45:26.309Z,71.15
2023-01-20T16:47:52.947Z,70.28
2023-01-20T16:50:19.459Z,70.48
2023-01-20T16:52:46.807Z,71.09
2023-01-20T16:55:13.951Z,71.14
2023-01-20T16:57:40.593Z,71.37
2023-01-20T17:00:08.551Z,71.53
2023-01-20T17:02:35.017Z,71.74
2023-01-20T17:05:01.429Z,72.02
2023-01-20T17:07:28.024Z,71.93
2023-01-20T17:09:54.481Z,72.23
2023-01-20T17:12:20.854Z,72.18
2023-01-20T17:14:47.241Z,72.59
2023-01-20T17:17:13.712Z,72.98
2023-01-20T17:19:40.080Z,72.49
2023-01-20T17:22:06.829Z,73.02
2023-01-20T17:24:33.419Z,72.62
2023-01-20T17:26:59.890Z,73.21
2023-01-20T17:29:27.027Z,73.27
2023-01-20T17:31:53.742Z,73.46
2023-01-20T17:34:20.195Z,73.58
2023-01-20T17:36:48.252Z,73.56
2023-01-20T17:39:14.676Z,73.83
2023-01-20T17:41:41.303Z,73.58
2023-01-20T17:44:07.868Z,73.54
2023-01-20T17:46:34.300Z,73.54
2023-01-20T17:49:06.757Z,73.61
2023-01-20T17:51:33.323Z,74.09
2023-01-20T17:54:03.782Z,73.90
2023-01-20T17:56:31.105Z,73.98
2023-01-20T17:58:57.761Z,74.32
2023-01-20T18:01:27.610Z,74.25
2023-01-20T18:03:56.389Z,73.94
2023-01-20T18:06:24.493Z,74.35
2023-01-20T18:08:53.682Z,74.21
2023-01-20T18:11:22.862Z,74.15
2023-01-20T18:13:51.224Z,74.34
2023-01-20T18:16:20.107Z,74.12
2023-01-20T18:18:48.373Z,74.46
2023-01-20T18:21:17.650Z,74.28
2023-01-20T18:23:45.226Z,74.21
2023-01-20T18:26:13.775Z,74.34
2023-01-20T18:28:41.751Z,74.46
2023-01-20T18:31:11.489Z,74.16
2023-01-20T18:33:41.505Z,74.39
2023-01-20T18:36:09.649Z,74.32
2023-01-20T18:38:36.280Z,73.99
2023-01-20T18:41:03.167Z,74.23
2023-01-20T18:43:30.077Z,73.80
2023-01-20T18:45:56.509Z,73.91
2023-01-20T18:48:23.241Z,74.31
2023-01-20T18:50:49.656Z,74.08
2023-01-20T18:53:16.156Z,74.15
2023-01-20T18:55:42.660Z,74.43
2023-01-20T18:58:09.682Z,74.06
2023-01-20T19:00:36.127Z,74.44
2023-01-20T19:03:02.586Z,74.46
2023-01-20T19:05:31.362Z,74.78
2023-01-20T19:07:57.749Z,74.54
2023-01-20T19:10:24.269Z,74.77
2023-01-20T19:12:51.933Z,74.70
2023-01-20T19:15:18.686Z,74.72
2023-01-20T19:17:45.089Z,75.06
2023-01-20T19:20:11.635Z,75.08
2023-01-20T19:22:39.162Z,75.20
2023-01-20T19:25:06.429Z,75.31
2023-01-20T19:27:32.881Z,75.39
2023-01-20T19:29:59.359Z,75.16
2023-01-20T19:32:25.991Z,75.18
2023-01-20T19:34:52.713Z,75.34
2023-01-20T19:37:19.280Z,75.50
2023-01-20T19:39:45.684Z,75.42
2023-01-20T19:42:12.066Z,75.72
2023-01-20T19:44:38.893Z,75.61
2023-01-20T19:47:05.742Z,75.66
2023-01-20T19:49:32.165Z,75.46
2023-01-20T19:51:59.801Z,75.58
2023-01-20T19:54:28.500Z,75.75
2023-01-20T19:56:55.017Z,75.27
2023-01-20T19:59:21.533Z,75.42
2023-01-20T20:01:47.976Z,75.58
2023-01-20T20:04:14.476Z,75.54
2023-01-20T20:06:44.701Z,75.82
2023-01-20T20:09:16.472Z,75.67
2023-01-20T20:11:43.433Z,75.45
2023-01-20T20:14:14.012Z,75.78
2023-01-20T20:16:41.070Z,75.48
2023-01-20T20:19:09.847Z,75.42
2023-01-20T20:21:36.441Z,75.36
2023-01-20T20:24:05.415Z,75.58
2023-01-20T20:26:40.941Z,75.61
2023-01-20T20:29:08.636Z,75.41
2023-01-20T20:31:37.329Z,75.17
2023-01-20T20:34:05.557Z,75.50
2023-01-20T20:36:33.455Z,75.08
2023-01-20T20:39:01.393Z,75.42
2023-01-20T20:41:31.040Z,75.47
2023-01-20T20:43:59.255Z,75.42
2023-01-20T20:46:26.405Z,75.35
2023-01-20T20:48:54.725Z,75.00
2023-01-20T20:51:23.839Z,75.32
2023-01-20T20:53:54.520Z,75.47
2023-01-20T20:56:21.404Z,75.36
2023-01-20T20:59:00.361Z,75.49
2023-01-20T21:01:29.097Z,75.13
2023-01-20T21:03:57.542Z,75.38
2023-01-20T21:06:24.112Z,75.49
2023-01-20T21:08:50.565Z,75.15
2023-01-20T21:11:17.094Z,75.12
2023-01-20T21:13:44.402Z,75.34
2023-01-20T21:16:15.173Z,76.00
2023-01-20T21:18:41.727Z,75.15
2023-01-20T21:21:12.496Z,75.62
2023-01-20T21:23:40.586Z,75.08
2023-01-20T21:26:11.592Z,75.36
2023-01-20T21:28:39.783Z,75.32
2023-01-20T21:31:07.809Z,75.04
2023-01-20T21:33:35.702Z,75.05
2023-01-20T21:36:04.011Z,75.29
2023-01-20T21:38:31.386Z,75.06
2023-01-20T21:41:03.889Z,75.88
2023-01-20T21:43:53.347Z,75.16
2023-01-20T21:46:20.529Z,75.08
2023-01-20T21:49:06.307Z,75.48
2023-01-20T21:51:51.661Z,75.54
2023-01-20T21:54:19.134Z,75.67
2023-01-20T21:56:45.888Z,75.70
2023-01-20T21:59:12.428Z,75.59
2023-01-20T22:01:39.873Z,75.37
2023-01-20T22:04:06.429Z,75.75
2023-01-20T22:06:32.865Z,75.56
2023-01-20T22:08:59.646Z,75.57
2023-01-20T22:11:26.931Z,75.49
2023-01-20T22:13:56.800Z,76.09
2023-01-20T22:16:24.511Z,75.89
2023-01-20T22:18:51.995Z,76.09
2023-01-20T22:21:19.021Z,75.83
2023-01-20T22:23:46.119Z,76.19
2023-01-20T22:26:12.683Z,76.10
2023-01-20T22:28:39.780Z,75.94
2023-01-20T22:31:19.926Z,76.98
2023-01-20T22:33:49.904Z,75.99
2023-01-20T22:36:16.362Z,75.43
2023-01-20T22:38:43.047Z,76.10
2023-01-20T22:41:09.636Z,76.39
2023-01-20T22:43:37.859Z,76.77
2023-01-20T22:46:04.970Z,77.05
2023-01-20T22:48:33.334Z,76.95
2023-01-20T22:51:17.136Z,77.53
2023-01-20T22:53:44.077Z,76.85
2023-01-20T22:56:13.698Z,77.27
2023-01-20T22:58:40.736Z,76.88
2023-01-20T23:01:19.704Z,77.37
2023-01-20T23:03:46.927Z,76.98
2023-01-20T23:06:14.109Z,76.33
2023-01-20T23:08:41.372Z,76.47
2023-01-20T23:11:14.204Z,76.93
2023-01-20T23:13:41.024Z,76.55
2023-01-20T23:16:10.822Z,76.65
2023-01-20T23:18:37.227Z,76.66
2023-01-20T23:21:05.783Z,76.74
2023-01-20T23:23:33.163Z,76.71
2023-01-20T23:26:09.680Z,77.06
2023-01-20T23:28:36.474Z,76.23
2023-01-20T23:31:06.531Z,76.48
2023-01-20T23:33:33.873Z,76.43
2023-01-20T23:36:13.988Z,77.17
2023-01-20T23:38:41.086Z,76.17
2023-01-20T23:41:07.659Z,76.08
2023-01-20T23:43:34.513Z,76.09
2023-01-20T23:46:03.655Z,75.90
2023-01-20T23:48:30.457Z,76.00
2023-01-20T23:50:59.787Z,76.10
2023-01-20T23:53:28.038Z,75.98
2023-01-20T23:56:06.934Z,76.60
2023-01-20T23:58:33.711Z,75.62
